sensor_id;sensor_type;location;lat;lon;timestamp;pressure;altitude;pressure_sealevel;temperature;humidity
12178;BME280;6152;48.728;9.256;2023-10-19T00:01:59;95514.84;;;9.29;100.00
12178;BME280;6152;48.728;9.256;2023-10-19T00:04:28;95514.50;;;9.33;100.00
12178;BME280;6152;48.728;9.256;2023-10-19T00:07:04;95522.59;;;9.40;100.00
12178;BME280;6152;48.728;9.256;2023-10-19T00:09:32;95514.81;;;9.40;100.00
12178;BME280;6152;48.728;9.256;2023-10-19T00:12:06;95514.31;;;9.46;100.00
12178;BME280;6152;48.728;9.256;2023-10-19T00:14:35;95509.00;;;9.47;100.00
12178;BME280;6152;48.728;9.256;2023-10-19T00:17:01;95510.50;;;9.50;100.00
12178;BME280;6152;48.728;9.256;2023-10-19T00:19:36;95509.44;;;9.52;100.00
12178;BME280;6152;48.728;9.256;2023-10-19T00:22:08;95514.13;;;9.58;100.00
12178;BME280;6152;48.728;9.256;2023-10-19T00:24:35;95512.91;;;9.62;100.00
12178;BME280;6152;48.728;9.256;2023-10-19T00:27:01;95504.19;;;9.63;100.00
12178;BME280;6152;48.728;9.256;2023-10-19T00:29:36;95510.88;;;9.66;100.00
12178;BME280;6152;48.728;9.256;2023-10-19T00:32:15;95514.50;;;9.75;100.00
12178;BME280;6152;48.728;9.256;2023-10-19T00:34:41;95510.72;;;9.79;100.00
12178;BME280;6152;48.728;9.256;2023-10-19T00:37:09;95518.38;;;9.80;100.00
12178;BME280;6152;48.728;9.256;2023-10-19T00:39:36;95513.06;;;9.82;100.00
12178;BME280;6152;48.728;9.256;2023-10-19T00:42:12;95508.53;;;9.84;100.00
12178;BME280;6152;48.728;9.256;2023-10-19T00:44:41;95492.69;;;9.87;100.00
12178;BME280;6152;48.728;9.256;2023-10-19T00:47:08;95486.44;;;9.89;100.00
12178;BME280;6152;48.728;9.256;2023-10-19T00:49:48;95492.31;;;9.91;100.00
12178;BME280;6152;48.728;9.256;2023-10-19T00:52:14;95483.44;;;9.94;100.00
12178;BME280;6152;48.728;9.256;2023-10-19T00:54:50;95485.78;;;9.97;100.00
12178;BME280;6152;48.728;9.256;2023-10-19T00:57:18;95484.56;;;10.01;100.00
12178;BME280;6152;48.728;9.256;2023-10-19T00:59:58;95489.50;;;10.04;100.00
12178;BME280;6152;48.728;9.256;2023-10-19T01:02:48;95487.63;;;10.06;100.00
12178;BME280;6152;48.728;9.256;2023-10-19T01:05:17;95483.09;;;10.08;100.00
12178;BME280;6152;48.728;9.256;2023-10-19T01:07:47;95467.13;;;10.12;100.00
12178;BME280;6152;48.728;9.256;2023-10-19T01:10:21;95446.66;;;10.19;100.00
12178;BME280;6152;48.728;9.256;2023-10-19T01:12:49;95449.94;;;10.21;100.00
12178;BME280;6152;48.728;9.256;2023-10-19T01:15:20;95456.78;;;10.22;100.00
12178;BME280;6152;48.728;9.256;2023-10-19T01:17:58;95454.19;;;10.22;100.00
12178;BME280;6152;48.728;9.256;2023-10-19T01:20:30;95453.94;;;10.25;100.00
12178;BME280;6152;48.728;9.256;2023-10-19T01:25:47;95436.16;;;10.30;100.00
12178;BME280;6152;48.728;9.256;2023-10-19T01:28:13;95433.31;;;10.33;100.00
12178;BME280;6152;48.728;9.256;2023-10-19T01:30:45;95419.09;;;10.37;100.00
12178;BME280;6152;48.728;9.256;2023-10-19T01:33:12;95414.56;;;10.39;100.00
12178;BME280;6152;48.728;9.256;2023-10-19T01:35:39;95416.91;;;10.42;100.00
12178;BME280;6152;48.728;9.256;2023-10-19T01:38:24;95406.88;;;10.38;100.00
12178;BME280;6152;48.728;9.256;2023-10-19T01:40:51;95403.22;;;10.40;100.00
12178;BME280;6152;48.728;9.256;2023-10-19T01:43:17;95393.66;;;10.41;100.00
12178;BME280;6152;48.728;9.256;2023-10-19T01:46:06;95390.88;;;10.42;100.00
12178;BME280;6152;48.728;9.256;2023-10-19T01:48:42;95379.66;;;10.42;100.00
12178;BME280;6152;48.728;9.256;2023-10-19T01:51:09;95388.44;;;10.41;100.00
12178;BME280;6152;48.728;9.256;2023-10-19T01:53:43;95378.84;;;10.41;100.00
12178;BME280;6152;48.728;9.256;2023-10-19T01:56:13;95377.22;;;10.40;100.00
12178;BME280;6152;48.728;9.256;2023-10-19T01:58:41;95382.41;;;10.40;100.00
12178;BME280;6152;48.728;9.256;2023-10-19T02:01:08;95388.69;;;10.38;100.00
12178;BME280;6152;48.728;9.256;2023-10-19T02:03:45;95390.22;;;10.40;100.00
12178;BME280;6152;48.728;9.256;2023-10-19T02:06:12;95384.31;;;10.38;100.00
12178;BME280;6152;48.728;9.256;2023-10-19T02:11:26;95380.22;;;10.36;100.00
12178;BME280;6152;48.728;9.256;2023-10-19T02:13:55;95377.50;;;10.37;100.00
12178;BME280;6152;48.728;9.256;2023-10-19T02:16:22;95383.63;;;10.36;100.00
12178;BME280;6152;48.728;9.256;2023-10-19T02:18:51;95369.81;;;10.36;100.00
12178;BME280;6152;48.728;9.256;2023-10-19T02:21:18;95368.16;;;10.35;100.00
12178;BME280;6152;48.728;9.256;2023-10-19T02:23:48;95369.13;;;10.34;100.00
12178;BME280;6152;48.728;9.256;2023-10-19T02:26:17;95362.00;;;10.26;100.00
12178;BME280;6152;48.728;9.256;2023-10-19T02:28:48;95351.16;;;10.21;100.00
12178;BME280;6152;48.728;9.256;2023-10-19T02:31:18;95366.63;;;10.23;100.00
12178;BME280;6152;48.728;9.256;2023-10-19T02:33:49;95365.13;;;10.20;100.00
12178;BME280;6152;48.728;9.256;2023-10-19T02:36:21;95359.94;;;10.20;100.00
12178;BME280;6152;48.728;9.256;2023-10-19T02:38:48;95360.72;;;10.21;100.00
12178;BME280;6152;48.728;9.256;2023-10-19T02:41:15;95358.28;;;10.19;100.00
12178;BME280;6152;48.728;9.256;2023-10-19T02:43:42;95365.13;;;10.20;100.00
12178;BME280;6152;48.728;9.256;2023-10-19T02:46:12;95354.75;;;10.20;100.00
12178;BME280;6152;48.728;9.256;2023-10-19T02:48:39;95351.31;;;10.20;100.00
12178;BME280;6152;48.728;9.256;2023-10-19T02:51:13;95349.78;;;10.17;100.00
12178;BME280;6152;48.728;9.256;2023-10-19T02:53:42;95347.44;;;10.14;100.00
12178;BME280;6152;48.728;9.256;2023-10-19T02:56:15;95347.69;;;10.11;100.00
12178;BME280;6152;48.728;9.256;2023-10-19T02:58:46;95347.97;;;10.08;100.00
12178;BME280;6152;48.728;9.256;2023-10-19T03:01:19;95342.34;;;10.03;100.00
12178;BME280;6152;48.728;9.256;2023-10-19T03:03:54;95346.16;;;9.99;100.00
12178;BME280;6152;48.728;9.256;2023-10-19T03:06:24;95340.41;;;9.95;100.00
12178;BME280;6152;48.728;9.256;2023-10-19T03:08:51;95339.84;;;9.92;100.00
12178;BME280;6152;48.728;9.256;2023-10-19T03:11:24;95345.31;;;9.89;100.00
12178;BME280;6152;48.728;9.256;2023-10-19T03:13:51;95345.31;;;9.89;100.00
12178;BME280;6152;48.728;9.256;2023-10-19T03:16:21;95336.81;;;9.87;100.00
12178;BME280;6152;48.728;9.256;2023-10-19T03:18:48;95339.84;;;9.92;100.00
12178;BME280;6152;48.728;9.256;2023-10-19T03:21:15;95337.13;;;9.93;100.00
12178;BME280;6152;48.728;9.256;2023-10-19T03:23:42;95327.53;;;9.94;100.00
12178;BME280;6152;48.728;9.256;2023-10-19T03:26:09;95322.34;;;9.94;100.00
12178;BME280;6152;48.728;9.256;2023-10-19T03:28:49;95320.72;;;9.93;100.00
12178;BME280;6152;48.728;9.256;2023-10-19T03:31:22;95322.63;;;9.91;100.00
12178;BME280;6152;48.728;9.256;2023-10-19T03:33:49;95322.63;;;9.91;100.00
12178;BME280;6152;48.728;9.256;2023-10-19T03:36:20;95330.28;;;9.92;100.00
12178;BME280;6152;48.728;9.256;2023-10-19T03:38:47;95327.00;;;10.00;100.00
12178;BME280;6152;48.728;9.256;2023-10-19T03:41:16;95314.44;;;10.05;100.00
12178;BME280;6152;48.728;9.256;2023-10-19T03:43:42;95310.91;;;10.06;100.00
12178;BME280;6152;48.728;9.256;2023-10-19T03:46:08;95308.97;;;10.08;100.00
12178;BME280;6152;48.728;9.256;2023-10-19T03:48:48;95307.88;;;10.10;100.00
12178;BME280;6152;48.728;9.256;2023-10-19T03:51:14;95309.16;;;10.16;100.00
12178;BME280;6152;48.728;9.256;2023-10-19T03:53:41;95310.78;;;10.17;100.00
12178;BME280;6152;48.728;9.256;2023-10-19T03:56:19;95313.66;;;10.14;100.00
12178;BME280;6152;48.728;9.256;2023-10-19T03:58:46;95303.28;;;10.14;100.00
12178;BME280;6152;48.728;9.256;2023-10-19T04:01:17;95297.38;;;10.12;100.00
12178;BME280;6152;48.728;9.256;2023-10-19T04:03:45;95299.97;;;10.12;100.00
12178;BME280;6152;48.728;9.256;2023-10-19T04:06:11;95298.06;;;10.14;100.00
12178;BME280;6152;48.728;9.256;2023-10-19T04:08:41;95285.31;;;10.11;100.00
12178;BME280;6152;48.728;9.256;2023-10-19T04:11:16;95286.28;;;10.10;100.00
12178;BME280;6152;48.728;9.256;2023-10-19T04:13:59;95286.28;;;10.10;100.00
12178;BME280;6152;48.728;9.256;2023-10-19T04:16:29;95283.81;;;10.08;100.00
12178;BME280;6152;48.728;9.256;2023-10-19T04:18:56;95282.03;;;10.09;100.00
12178;BME280;6152;48.728;9.256;2023-10-19T04:21:23;95282.16;;;10.07;100.00
12178;BME280;6152;48.728;9.256;2023-10-19T04:23:50;95287.63;;;10.04;100.00
12178;BME280;6152;48.728;9.256;2023-10-19T04:26:16;95273.25;;;10.00;100.00
12178;BME280;6152;48.728;9.256;2023-10-19T04:28:44;95275.31;;;9.97;100.00
12178;BME280;6152;48.728;9.256;2023-10-19T04:31:11;95276.41;;;9.94;100.00
12178;BME280;6152;48.728;9.256;2023-10-19T04:33:40;95263.56;;;9.93;100.00
12178;BME280;6152;48.728;9.256;2023-10-19T04:36:09;95262.88;;;9.91;100.00
12178;BME280;6152;48.728;9.256;2023-10-19T04:38:37;95254.00;;;10.03;100.00
12178;BME280;6152;48.728;9.256;2023-10-19T04:41:12;95259.78;;;10.16;100.00
12178;BME280;6152;48.728;9.256;2023-10-19T04:43:39;95256.75;;;10.21;100.00
12178;BME280;6152;48.728;9.256;2023-10-19T04:46:07;95255.13;;;10.29;100.00
12178;BME280;6152;48.728;9.256;2023-10-19T04:48:37;95252.97;;;10.34;100.00
12178;BME280;6152;48.728;9.256;2023-10-19T04:51:08;95249.38;;;10.35;100.00
12178;BME280;6152;48.728;9.256;2023-10-19T04:53:38;95252.81;;;10.36;100.00
12178;BME280;6152;48.728;9.256;2023-10-19T04:56:08;95260.75;;;10.34;100.00
12178;BME280;6152;48.728;9.256;2023-10-19T04:58:38;95251.59;;;10.30;100.00
12178;BME280;6152;48.728;9.256;2023-10-19T05:01:05;95253.09;;;10.23;100.00
12178;BME280;6152;48.728;9.256;2023-10-19T05:03:31;95247.75;;;10.15;100.00
12178;BME280;6152;48.728;9.256;2023-10-19T05:05:58;95252.63;;;10.08;100.00
12178;BME280;6152;48.728;9.256;2023-10-19T05:08:25;95245.22;;;10.04;100.00
12178;BME280;6152;48.728;9.256;2023-10-19T05:10:52;95245.78;;;9.98;100.00
12178;BME280;6152;48.728;9.256;2023-10-19T05:13:21;95246.06;;;9.95;100.00
12178;BME280;6152;48.728;9.256;2023-10-19T05:15:47;95244.69;;;9.91;100.00
12178;BME280;6152;48.728;9.256;2023-10-19T05:18:13;95245.78;;;9.88;100.00
12178;BME280;6152;48.728;9.256;2023-10-19T05:20:39;95245.06;;;9.86;100.00
12178;BME280;6152;48.728;9.256;2023-10-19T05:23:07;95246.16;;;9.84;100.00
12178;BME280;6152;48.728;9.256;2023-10-19T05:25:35;95247.25;;;9.81;100.00
12178;BME280;6152;48.728;9.256;2023-10-19T05:28:04;95252.59;;;9.80;100.00
12178;BME280;6152;48.728;9.256;2023-10-19T05:30:30;95254.63;;;9.76;100.00
12178;BME280;6152;48.728;9.256;2023-10-19T05:32:58;95250.53;;;9.74;100.00
12178;BME280;6152;48.728;9.256;2023-10-19T05:35:25;95243.94;;;9.70;100.00
12178;BME280;6152;48.728;9.256;2023-10-19T05:37:58;95244.38;;;9.65;100.00
12178;BME280;6152;48.728;9.256;2023-10-19T05:40:25;95247.34;;;9.60;100.00
12178;BME280;6152;48.728;9.256;2023-10-19T05:42:57;95246.66;;;9.58;100.00
12178;BME280;6152;48.728;9.256;2023-10-19T05:45:24;95244.31;;;9.55;100.00
12178;BME280;6152;48.728;9.256;2023-10-19T05:47:50;95241.06;;;9.53;100.00
12178;BME280;6152;48.728;9.256;2023-10-19T05:50:17;95245.56;;;9.51;100.00
12178;BME280;6152;48.728;9.256;2023-10-19T05:52:44;95245.69;;;9.50;100.00
12178;BME280;6152;48.728;9.256;2023-10-19T05:55:11;95254.97;;;9.52;100.00
12178;BME280;6152;48.728;9.256;2023-10-19T05:57:38;95250.75;;;9.51;100.00
12178;BME280;6152;48.728;9.256;2023-10-19T06:00:11;95257.44;;;9.54;100.00
12178;BME280;6152;48.728;9.256;2023-10-19T06:02:45;95252.81;;;9.57;100.00
12178;BME280;6152;48.728;9.256;2023-10-19T06:05:13;95257.75;;;9.60;100.00
12178;BME280;6152;48.728;9.256;2023-10-19T06:07:43;95249.69;;;9.63;100.00
12178;BME280;6152;48.728;9.256;2023-10-19T06:10:18;95252.00;;;9.67;100.00
12178;BME280;6152;48.728;9.256;2023-10-19T06:12:50;95256.00;;;9.71;100.00
12178;BME280;6152;48.728;9.256;2023-10-19T06:15:18;95253.94;;;9.74;100.00
12178;BME280;6152;48.728;9.256;2023-10-19T06:17:44;95262.97;;;9.80;100.00
12178;BME280;6152;48.728;9.256;2023-10-19T06:20:12;95259.16;;;9.84;100.00
12178;BME280;6152;48.728;9.256;2023-10-19T06:22:54;95260.25;;;9.91;100.00
12178;BME280;6152;48.728;9.256;2023-10-19T06:25:23;95268.50;;;9.96;100.00
12178;BME280;6152;48.728;9.256;2023-10-19T06:27:51;95265.34;;;10.02;100.00
12178;BME280;6152;48.728;9.256;2023-10-19T06:30:19;95256.19;;;9.98;100.00
12178;BME280;6152;48.728;9.256;2023-10-19T06:32:50;95262.09;;;10.09;100.00
12178;BME280;6152;48.728;9.256;2023-10-19T06:35:20;95266.88;;;10.14;100.00
12178;BME280;6152;48.728;9.256;2023-10-19T06:37:47;95267.44;;;10.18;100.00
12178;BME280;6152;48.728;9.256;2023-10-19T06:40:14;95269.63;;;10.22;100.00
12178;BME280;6152;48.728;9.256;2023-10-19T06:42:42;95264.16;;;10.25;100.00
12178;BME280;6152;48.728;9.256;2023-10-19T06:45:08;95256.78;;;10.30;100.00
12178;BME280;6152;48.728;9.256;2023-10-19T06:47:36;95262.53;;;10.34;100.00
12178;BME280;6152;48.728;9.256;2023-10-19T06:50:07;95264.72;;;10.38;100.00
12178;BME280;6152;48.728;9.256;2023-10-19T06:52:39;95260.88;;;10.42;100.00
12178;BME280;6152;48.728;9.256;2023-10-19T06:55:06;95263.19;;;10.45;100.00
12178;BME280;6152;48.728;9.256;2023-10-19T06:57:55;95270.72;;;10.48;100.00
12178;BME280;6152;48.728;9.256;2023-10-19T07:00:25;95257.47;;;10.51;100.00
12178;BME280;6152;48.728;9.256;2023-10-19T07:02:57;95257.31;;;10.53;100.00
12178;BME280;6152;48.728;9.256;2023-10-19T07:05:26;95253.06;;;10.52;100.00
12178;BME280;6152;48.728;9.256;2023-10-19T07:07:56;95252.66;;;10.56;100.00
12178;BME280;6152;48.728;9.256;2023-10-19T07:10:23;95259.50;;;10.57;100.00
12178;BME280;6152;48.728;9.256;2023-10-19T07:12:54;95244.72;;;10.58;100.00
12178;BME280;6152;48.728;9.256;2023-10-19T07:15:21;95253.09;;;10.61;100.00
12178;BME280;6152;48.728;9.256;2023-10-19T07:17:49;95258.94;;;10.63;100.00
12178;BME280;6152;48.728;9.256;2023-10-19T07:20:17;95254.28;;;10.67;100.00
12178;BME280;6152;48.728;9.256;2023-10-19T07:22:57;95255.50;;;10.73;100.00
12178;BME280;6152;48.728;9.256;2023-10-19T07:25:25;95248.25;;;10.76;100.00
12178;BME280;6152;48.728;9.256;2023-10-19T07:27:52;95254.00;;;10.80;100.00
12178;BME280;6152;48.728;9.256;2023-10-19T07:30:20;95252.75;;;10.84;100.00
12178;BME280;6152;48.728;9.256;2023-10-19T07:32:53;95246.88;;;10.82;100.00
12178;BME280;6152;48.728;9.256;2023-10-19T07:35:26;95246.31;;;10.88;100.00
12178;BME280;6152;48.728;9.256;2023-10-19T07:37:53;95248.06;;;10.97;100.00
12178;BME280;6152;48.728;9.256;2023-10-19T07:40:19;95245.47;;;11.06;100.00
12178;BME280;6152;48.728;9.256;2023-10-19T07:42:46;95241.03;;;11.17;100.00
12178;BME280;6152;48.728;9.256;2023-10-19T07:45:12;95240.72;;;11.29;100.00
12178;BME280;6152;48.728;9.256;2023-10-19T07:47:39;95240.38;;;11.42;100.00
12178;BME280;6152;48.728;9.256;2023-10-19T07:50:07;95238.13;;;11.56;100.00
12178;BME280;6152;48.728;9.256;2023-10-19T07:52:38;95239.69;;;11.77;100.00
12178;BME280;6152;48.728;9.256;2023-10-19T07:55:05;95235.97;;;11.97;100.00
12178;BME280;6152;48.728;9.256;2023-10-19T07:57:32;95246.91;;;12.10;100.00
12178;BME280;6152;48.728;9.256;2023-10-19T08:00:00;95230.66;;;12.16;100.00
12178;BME280;6152;48.728;9.256;2023-10-19T08:02:26;95228.09;;;12.24;100.00
12178;BME280;6152;48.728;9.256;2023-10-19T08:04:52;95232.78;;;12.38;100.00
12178;BME280;6152;48.728;9.256;2023-10-19T08:07:18;95226.09;;;12.53;100.00
12178;BME280;6152;48.728;9.256;2023-10-19T08:09:45;95221.47;;;12.65;100.00
12178;BME280;6152;48.728;9.256;2023-10-19T08:12:11;95221.81;;;12.70;100.00
12178;BME280;6152;48.728;9.256;2023-10-19T08:14:39;95221.06;;;12.78;100.00
12178;BME280;6152;48.728;9.256;2023-10-19T08:17:05;95214.56;;;12.82;100.00
12178;BME280;6152;48.728;9.256;2023-10-19T08:19:34;95212.97;;;12.89;100.00
12178;BME280;6152;48.728;9.256;2023-10-19T08:22:01;95211.72;;;13.01;100.00
12178;BME280;6152;48.728;9.256;2023-10-19T08:24:28;95207.53;;;13.08;100.00
12178;BME280;6152;48.728;9.256;2023-10-19T08:26:56;95215.81;;;13.03;100.00
12178;BME280;6152;48.728;9.256;2023-10-19T08:29:22;95221.03;;;13.03;100.00
12178;BME280;6152;48.728;9.256;2023-10-19T08:31:50;95220.47;;;13.09;100.00
12178;BME280;6152;48.728;9.256;2023-10-19T08:34:16;95217.06;;;13.17;100.00
12178;BME280;6152;48.728;9.256;2023-10-19T08:36:43;95219.00;;;13.41;100.00
12178;BME280;6152;48.728;9.256;2023-10-19T08:39:10;95225.13;;;13.57;100.00
12178;BME280;6152;48.728;9.256;2023-10-19T08:41:38;95225.81;;;13.68;100.00
12178;BME280;6152;48.728;9.256;2023-10-19T08:44:06;95225.16;;;13.74;100.00
12178;BME280;6152;48.728;9.256;2023-10-19T08:46:43;95215.75;;;13.89;100.00
12178;BME280;6152;48.728;9.256;2023-10-19T08:49:12;95214.31;;;14.18;100.00
12178;BME280;6152;48.728;9.256;2023-10-19T08:51:40;95212.25;;;14.46;100.00
12178;BME280;6152;48.728;9.256;2023-10-19T08:54:14;95216.00;;;14.76;100.00
12178;BME280;6152;48.728;9.256;2023-10-19T08:56:41;95223.88;;;14.92;100.00
12178;BME280;6152;48.728;9.256;2023-10-19T08:59:08;95224.47;;;15.10;100.00
12178;BME280;6152;48.728;9.256;2023-10-19T09:01:37;95225.25;;;15.35;100.00
12178;BME280;6152;48.728;9.256;2023-10-19T09:04:03;95228.44;;;15.70;100.00
12178;BME280;6152;48.728;9.256;2023-10-19T09:06:36;95225.91;;;15.84;100.00
12178;BME280;6152;48.728;9.256;2023-10-19T09:09:12;95221.03;;;16.04;100.00
12178;BME280;6152;48.728;9.256;2023-10-19T09:11:51;95218.03;;;16.15;100.00
12178;BME280;6152;48.728;9.256;2023-10-19T09:14:34;95217.53;;;16.42;100.00
12178;BME280;6152;48.728;9.256;2023-10-19T09:17:01;95221.91;;;16.73;100.00
12178;BME280;6152;48.728;9.256;2023-10-19T09:19:42;95218.25;;;16.96;100.00
12178;BME280;6152;48.728;9.256;2023-10-19T09:22:09;95221.50;;;16.84;100.00
12178;BME280;6152;48.728;9.256;2023-10-19T09:24:49;95218.72;;;17.00;100.00
12178;BME280;6152;48.728;9.256;2023-10-19T09:27:19;95222.03;;;17.16;100.00
12178;BME280;6152;48.728;9.256;2023-10-19T09:29:46;95219.50;;;17.23;100.00
12178;BME280;6152;48.728;9.256;2023-10-19T09:32:13;95214.41;;;17.36;100.00
12178;BME280;6152;48.728;9.256;2023-10-19T09:34:40;95220.22;;;17.46;100.00
12178;BME280;6152;48.728;9.256;2023-10-19T09:37:10;95210.16;;;17.50;100.00
12178;BME280;6152;48.728;9.256;2023-10-19T09:39:37;95202.25;;;17.35;100.00
12178;BME280;6152;48.728;9.256;2023-10-19T09:42:09;95195.66;;;17.39;100.00
12178;BME280;6152;48.728;9.256;2023-10-19T09:44:44;95191.03;;;17.71;100.00
12178;BME280;6152;48.728;9.256;2023-10-19T09:47:17;95184.25;;;18.33;100.00
12178;BME280;6152;48.728;9.256;2023-10-19T09:49:47;95195.53;;;18.91;100.00
12178;BME280;6152;48.728;9.256;2023-10-19T09:52:17;95191.91;;;18.92;100.00
12178;BME280;6152;48.728;9.256;2023-10-19T09:57:37;95194.06;;;18.60;100.00
12178;BME280;6152;48.728;9.256;2023-10-19T10:00:06;95186.56;;;18.22;100.00
12178;BME280;6152;48.728;9.256;2023-10-19T10:02:39;95187.81;;;17.90;100.00
12178;BME280;6152;48.728;9.256;2023-10-19T10:10:47;95176.53;;;17.16;100.00
12178;BME280;6152;48.728;9.256;2023-10-19T10:15:56;95185.56;;;16.99;100.00
12178;BME280;6152;48.728;9.256;2023-10-19T10:18:32;95182.66;;;16.94;100.00
12178;BME280;6152;48.728;9.256;2023-10-19T10:21:15;95186.06;;;16.80;100.00
12178;BME280;6152;48.728;9.256;2023-10-19T10:23:50;95177.78;;;16.45;100.00
12178;BME280;6152;48.728;9.256;2023-10-19T10:26:20;95171.56;;;16.46;100.00
12178;BME280;6152;48.728;9.256;2023-10-19T10:29:14;95180.34;;;16.53;100.00
12178;BME280;6152;48.728;9.256;2023-10-19T10:31:47;95176.75;;;16.54;100.00
12178;BME280;6152;48.728;9.256;2023-10-19T10:37:00;95176.22;;;16.36;100.00
12178;BME280;6152;48.728;9.256;2023-10-19T10:39:30;95180.38;;;16.31;100.00
12178;BME280;6152;48.728;9.256;2023-10-19T10:41:57;95177.69;;;16.16;100.00
12178;BME280;6152;48.728;9.256;2023-10-19T10:44:43;95171.50;;;16.09;100.00
12178;BME280;6152;48.728;9.256;2023-10-19T10:47:12;95167.44;;;16.06;100.00
12178;BME280;6152;48.728;9.256;2023-10-19T10:49:54;95166.97;;;16.03;100.00
12178;BME280;6152;48.728;9.256;2023-10-19T10:52:36;95170.22;;;16.05;100.00
12178;BME280;6152;48.728;9.256;2023-10-19T10:55:13;95174.91;;;15.87;100.00
12178;BME280;6152;48.728;9.256;2023-10-19T10:57:41;95180.88;;;15.73;100.00
12178;BME280;6152;48.728;9.256;2023-10-19T11:00:10;95180.31;;;15.54;100.00
12178;BME280;6152;48.728;9.256;2023-10-19T11:02:42;95171.84;;;15.36;100.00
12178;BME280;6152;48.728;9.256;2023-10-19T11:05:10;95168.59;;;15.26;100.00
12178;BME280;6152;48.728;9.256;2023-10-19T11:07:38;95174.19;;;15.23;100.00
12178;BME280;6152;48.728;9.256;2023-10-19T11:10:05;95173.91;;;15.10;100.00
12178;BME280;6152;48.728;9.256;2023-10-19T11:12:31;95170.47;;;15.09;100.00
12178;BME280;6152;48.728;9.256;2023-10-19T11:14:59;95177.84;;;15.06;100.00
12178;BME280;6152;48.728;9.256;2023-10-19T11:17:28;95175.38;;;14.96;100.00
12178;BME280;6152;48.728;9.256;2023-10-19T11:19:58;95161.50;;;14.96;100.00
12178;BME280;6152;48.728;9.256;2023-10-19T11:22:27;95163.44;;;14.94;100.00
12178;BME280;6152;48.728;9.256;2023-10-19T11:24:54;95165.75;;;14.89;100.00
12178;BME280;6152;48.728;9.256;2023-10-19T11:27:27;95161.69;;;14.78;100.00
12178;BME280;6152;48.728;9.256;2023-10-19T11:29:58;95164.16;;;14.72;100.00
12178;BME280;6152;48.728;9.256;2023-10-19T11:32:25;95169.06;;;14.66;100.00
12178;BME280;6152;48.728;9.256;2023-10-19T11:34:57;95180.69;;;14.56;100.00
12178;BME280;6152;48.728;9.256;2023-10-19T11:37:23;95176.91;;;14.42;100.00
12178;BME280;6152;48.728;9.256;2023-10-19T11:39:49;95166.94;;;14.38;100.00
12178;BME280;6152;48.728;9.256;2023-10-19T11:42:17;95163.69;;;14.36;100.00
12178;BME280;6152;48.728;9.256;2023-10-19T11:44:44;95149.78;;;14.35;100.00
12178;BME280;6152;48.728;9.256;2023-10-19T11:47:11;95154.84;;;14.37;100.00
12178;BME280;6152;48.728;9.256;2023-10-19T11:49:37;95153.56;;;14.41;100.00
12178;BME280;6152;48.728;9.256;2023-10-19T11:52:07;95148.47;;;14.39;100.00
12178;BME280;6152;48.728;9.256;2023-10-19T11:54:35;95141.59;;;14.38;100.00
12178;BME280;6152;48.728;9.256;2023-10-19T11:57:02;95145.69;;;14.41;100.00
12178;BME280;6152;48.728;9.256;2023-10-19T11:59:28;95140.63;;;14.47;100.00
12178;BME280;6152;48.728;9.256;2023-10-19T12:01:55;95125.72;;;14.56;100.00
12178;BME280;6152;48.728;9.256;2023-10-19T12:04:21;95116.88;;;14.65;100.00
12178;BME280;6152;48.728;9.256;2023-10-19T12:06:47;95122.91;;;14.74;100.00
12178;BME280;6152;48.728;9.256;2023-10-19T12:09:13;95113.41;;;14.81;100.00
12178;BME280;6152;48.728;9.256;2023-10-19T12:11:42;95111.09;;;14.86;100.00
12178;BME280;6152;48.728;9.256;2023-10-19T12:14:10;95115.81;;;14.90;100.00
12178;BME280;6152;48.728;9.256;2023-10-19T12:16:41;95102.25;;;14.87;100.00
12178;BME280;6152;48.728;9.256;2023-10-19T12:19:07;95100.31;;;14.81;100.00
12178;BME280;6152;48.728;9.256;2023-10-19T12:21:36;95100.31;;;14.81;100.00
12178;BME280;6152;48.728;9.256;2023-10-19T12:24:07;95097.03;;;14.79;100.00
12178;BME280;6152;48.728;9.256;2023-10-19T12:26:34;95086.56;;;14.79;100.00
12178;BME280;6152;48.728;9.256;2023-10-19T12:29:00;95083.63;;;14.82;100.00
12178;BME280;6152;48.728;9.256;2023-10-19T12:31:26;95083.97;;;14.79;100.00
12178;BME280;6152;48.728;9.256;2023-10-19T12:33:52;95080.38;;;14.72;100.00
12178;BME280;6152;48.728;9.256;2023-10-19T12:36:19;95057.16;;;14.69;100.00
12178;BME280;6152;48.728;9.256;2023-10-19T12:38:54;95061.44;;;14.61;100.00
12178;BME280;6152;48.728;9.256;2023-10-19T12:41:21;95049.47;;;14.59;100.00
12178;BME280;6152;48.728;9.256;2023-10-19T12:43:48;95044.41;;;14.57;100.00
12178;BME280;6152;48.728;9.256;2023-10-19T12:46:14;95044.41;;;14.57;100.00
12178;BME280;6152;48.728;9.256;2023-10-19T12:48:42;95061.78;;;14.50;100.00
12178;BME280;6152;48.728;9.256;2023-10-19T12:51:08;95047.38;;;14.46;100.00
12178;BME280;6152;48.728;9.256;2023-10-19T12:53:37;95043.94;;;14.46;100.00
12178;BME280;6152;48.728;9.256;2023-10-19T12:56:07;95057.84;;;14.46;100.00
12178;BME280;6152;48.728;9.256;2023-10-19T12:58:38;95083.53;;;14.43;100.00
12178;BME280;6152;48.728;9.256;2023-10-19T13:01:04;95076.16;;;14.38;100.00
12178;BME280;6152;48.728;9.256;2023-10-19T13:03:42;95076.50;;;14.43;100.00
12178;BME280;6152;48.728;9.256;2023-10-19T13:06:11;95080.09;;;14.42;100.00
12178;BME280;6152;48.728;9.256;2023-10-19T13:08:38;95076.50;;;14.35;100.00
12178;BME280;6152;48.728;9.256;2023-10-19T13:11:07;95076.31;;;14.21;100.00
12178;BME280;6152;48.728;9.256;2023-10-19T13:13:33;95072.25;;;14.18;100.00
12178;BME280;6152;48.728;9.256;2023-10-19T13:16:02;95060.81;;;14.11;100.00
12178;BME280;6152;48.728;9.256;2023-10-19T13:18:31;95059.97;;;14.10;100.00
12178;BME280;6152;48.728;9.256;2023-10-19T13:21:00;95071.59;;;14.08;100.00
12178;BME280;6152;48.728;9.256;2023-10-19T13:23:35;95057.69;;;14.07;100.00
12178;BME280;6152;48.728;9.256;2023-10-19T13:26:04;95054.75;;;14.10;100.00
12178;BME280;6152;48.728;9.256;2023-10-19T13:28:34;95050.00;;;14.14;100.00
12178;BME280;6152;48.728;9.256;2023-10-19T13:31:01;95052.13;;;14.18;100.00
12178;BME280;6152;48.728;9.256;2023-10-19T13:33:27;95042.66;;;14.26;100.00
12178;BME280;6152;48.728;9.256;2023-10-19T13:35:54;95043.47;;;14.26;100.00